DAL1760 KMSP-KOMA
Flight info
| Callsign | DAL1760 |
|---|---|
| Flight time | 0h 47m |
| Altitude | 34000 |
| Route | ORSKY3 ORSKY DABOY LANTK2 |
| Aircraft | MD88/M-SDFGIRWY/S |
Departure
| Time | 2026-04-22 19:34 |
|---|---|
| Airport | Minneapolis–Saint Paul International Airport / Wold–Chamberlain Field (KMSP) |
Arrival
| Time | 2026-04-22 20:21 |
|---|---|
| Airport | Eppley Airfield (KOMA) |
| Time | Latitude | Longitude | Altitude | Speed | Heading |
|---|---|---|---|---|---|
| 2026-04-22 19:11 | 44.88282 | -93.20370 | 837 ft | 0 kts | 221° |
| 2026-04-22 19:26 | 44.88283 | -93.20369 | 837 ft | 1 kts | 221° |
| 2026-04-22 19:26 | 44.88275 | -93.20370 | 833 ft | 3 kts | 188° |
| 2026-04-22 19:26 | 44.88282 | -93.20366 | 837 ft | 3 kts | 216° |
| 2026-04-22 19:26 | 44.88292 | -93.20351 | 828 ft | 3 kts | 233° |
| 2026-04-22 19:27 | 44.88305 | -93.20329 | 827 ft | 3 kts | 227° |
| 2026-04-22 19:27 | 44.88318 | -93.20308 | 830 ft | 3 kts | 234° |
| 2026-04-22 19:27 | 44.88326 | -93.20289 | 834 ft | 3 kts | 270° |
| 2026-04-22 19:27 | 44.88325 | -93.20281 | 835 ft | 0 kts | 301° |
| 2026-04-22 19:29 | 44.88339 | -93.20299 | 830 ft | 6 kts | 331° |
| 2026-04-22 19:30 | 44.88375 | -93.20316 | 832 ft | 12 kts | 336° |
| 2026-04-22 19:30 | 44.88452 | -93.20469 | 836 ft | 14 kts | 313° |
| 2026-04-22 19:30 | 44.88522 | -93.20607 | 834 ft | 22 kts | 302° |
| 2026-04-22 19:30 | 44.88602 | -93.20795 | 836 ft | 23 kts | 301° |
| 2026-04-22 19:31 | 44.88686 | -93.20984 | 837 ft | 23 kts | 302° |
| 2026-04-22 19:31 | 44.88768 | -93.21177 | 833 ft | 23 kts | 302° |
| 2026-04-22 19:31 | 44.88855 | -93.21373 | 831 ft | 25 kts | 301° |
| 2026-04-22 19:31 | 44.88955 | -93.21605 | 838 ft | 27 kts | 300° |
| 2026-04-22 19:32 | 44.89055 | -93.21833 | 833 ft | 26 kts | 302° |
| 2026-04-22 19:32 | 44.89145 | -93.22043 | 831 ft | 22 kts | 302° |
| 2026-04-22 19:32 | 44.89216 | -93.22138 | 834 ft | 9 kts | 5° |
| 2026-04-22 19:32 | 44.89271 | -93.22074 | 840 ft | 10 kts | 71° |
| 2026-04-22 19:33 | 44.89247 | -93.21986 | 839 ft | 16 kts | 122° |
| 2026-04-22 19:33 | 44.89085 | -93.21610 | 833 ft | 77 kts | 121° |
| 2026-04-22 19:33 | 44.88696 | -93.20711 | 834 ft | 135 kts | 121° |
| 2026-04-22 19:33 | 44.88162 | -93.19483 | 1330 ft | 146 kts | 123° |
| 2026-04-22 19:34 | 44.87713 | -93.18201 | 2186 ft | 153 kts | 111° |
| 2026-04-22 19:34 | 44.87573 | -93.16533 | 2491 ft | 193 kts | 96° |
| 2026-04-22 19:34 | 44.87625 | -93.14522 | 3057 ft | 216 kts | 92° |
| 2026-04-22 19:34 | 44.87744 | -93.12296 | 3630 ft | 236 kts | 90° |
| 2026-04-22 19:35 | 44.87910 | -93.09983 | 4479 ft | 243 kts | 89° |
| 2026-04-22 19:35 | 44.88091 | -93.07574 | 5190 ft | 251 kts | 89° |
| 2026-04-22 19:35 | 44.88219 | -93.05894 | 5636 ft | 259 kts | 89° |
| 2026-04-22 19:35 | 44.88476 | -93.02373 | 6375 ft | 285 kts | 89° |
| 2026-04-22 19:36 | 44.88494 | -92.99560 | 7095 ft | 288 kts | 107° |
| 2026-04-22 19:36 | 44.87687 | -92.97042 | 7919 ft | 281 kts | 135° |
| 2026-04-22 19:36 | 44.86160 | -92.95416 | 8700 ft | 276 kts | 163° |
| 2026-04-22 19:36 | 44.84289 | -92.95007 | 9461 ft | 275 kts | 189° |
| 2026-04-22 19:37 | 44.82492 | -92.95883 | 10165 ft | 277 kts | 216° |
| 2026-04-22 19:37 | 44.81126 | -92.97886 | 10421 ft | 298 kts | 241° |
| 2026-04-22 19:37 | 44.80490 | -93.00764 | 10643 ft | 322 kts | 264° |
| 2026-04-22 19:37 | 44.80276 | -93.03988 | 10940 ft | 340 kts | 260° |
| 2026-04-22 19:38 | 44.79707 | -93.07275 | 11439 ft | 349 kts | 250° |
| 2026-04-22 19:38 | 44.78767 | -93.10439 | 12242 ft | 352 kts | 244° |
| 2026-04-22 19:38 | 44.77606 | -93.13481 | 13128 ft | 352 kts | 241° |
| 2026-04-22 19:38 | 44.76317 | -93.16435 | 13962 ft | 355 kts | 239° |
| 2026-04-22 19:39 | 44.74942 | -93.19352 | 14641 ft | 361 kts | 237° |
| 2026-04-22 19:39 | 44.73518 | -93.22233 | 15331 ft | 365 kts | 237° |
| 2026-04-22 19:39 | 44.72015 | -93.25199 | 16025 ft | 370 kts | 237° |
| 2026-04-22 19:39 | 44.70525 | -93.28124 | 16698 ft | 375 kts | 237° |
| 2026-04-22 19:40 | 44.68990 | -93.31125 | 17381 ft | 380 kts | 237° |
| 2026-04-22 19:40 | 44.67444 | -93.34168 | 18022 ft | 385 kts | 237° |
| 2026-04-22 19:40 | 44.65888 | -93.37261 | 18600 ft | 389 kts | 237° |
| 2026-04-22 19:40 | 44.64331 | -93.40383 | 19194 ft | 393 kts | 237° |
| 2026-04-22 19:41 | 44.62751 | -93.43539 | 19727 ft | 397 kts | 237° |
| 2026-04-22 19:41 | 44.61085 | -93.46658 | 20249 ft | 403 kts | 229° |
| 2026-04-22 19:41 | 44.58874 | -93.49134 | 20768 ft | 412 kts | 215° |
| 2026-04-22 19:41 | 44.56384 | -93.51169 | 21322 ft | 416 kts | 212° |
| 2026-04-22 19:42 | 44.53839 | -93.53147 | 21822 ft | 421 kts | 212° |
| 2026-04-22 19:42 | 44.51265 | -93.55134 | 22366 ft | 425 kts | 212° |
| 2026-04-22 19:42 | 44.48671 | -93.57143 | 22920 ft | 427 kts | 211° |
| 2026-04-22 19:42 | 44.46068 | -93.59184 | 23453 ft | 430 kts | 212° |
| 2026-04-22 19:43 | 44.40832 | -93.63382 | 24333 ft | 435 kts | 212° |
| 2026-04-22 19:43 | 44.38204 | -93.65510 | 24784 ft | 437 kts | 213° |
| 2026-04-22 19:43 | 44.35566 | -93.67652 | 25192 ft | 440 kts | 213° |
| 2026-04-22 19:44 | 44.32910 | -93.69809 | 25618 ft | 443 kts | 213° |
| 2026-04-22 19:44 | 44.30239 | -93.71972 | 26044 ft | 445 kts | 213° |
| 2026-04-22 19:44 | 44.27549 | -93.74145 | 26446 ft | 448 kts | 213° |
| 2026-04-22 19:44 | 44.24847 | -93.76325 | 26849 ft | 450 kts | 213° |
| 2026-04-22 19:45 | 44.22131 | -93.78515 | 27317 ft | 451 kts | 213° |
| 2026-04-22 19:45 | 44.19454 | -93.80667 | 27907 ft | 448 kts | 213° |
| 2026-04-22 19:45 | 44.16765 | -93.82821 | 28541 ft | 445 kts | 213° |
| 2026-04-22 19:45 | 44.14085 | -93.84959 | 29129 ft | 443 kts | 213° |
| 2026-04-22 19:46 | 44.11418 | -93.87085 | 29657 ft | 441 kts | 213° |
| 2026-04-22 19:46 | 44.08760 | -93.89206 | 30151 ft | 439 kts | 213° |
| 2026-04-22 19:46 | 44.06112 | -93.91315 | 30610 ft | 437 kts | 213° |
| 2026-04-22 19:46 | 44.03487 | -93.93405 | 31115 ft | 434 kts | 213° |
| 2026-04-22 19:47 | 44.01755 | -93.94784 | 31457 ft | 431 kts | 214° |
| 2026-04-22 19:47 | 43.99165 | -93.96847 | 31926 ft | 428 kts | 214° |
| 2026-04-22 19:47 | 43.96593 | -93.98897 | 32372 ft | 425 kts | 214° |
| 2026-04-22 19:47 | 43.94031 | -94.00934 | 32779 ft | 424 kts | 214° |
| 2026-04-22 19:48 | 43.91477 | -94.02965 | 33176 ft | 422 kts | 214° |
| 2026-04-22 19:48 | 43.88934 | -94.04985 | 33540 ft | 421 kts | 214° |
| 2026-04-22 19:48 | 43.86389 | -94.07008 | 33707 ft | 422 kts | 214° |
| 2026-04-22 19:48 | 43.83846 | -94.09025 | 33788 ft | 422 kts | 214° |
| 2026-04-22 19:49 | 43.78757 | -94.13046 | 33825 ft | 420 kts | 214° |
| 2026-04-22 19:49 | 43.73707 | -94.17025 | 33842 ft | 416 kts | 214° |
| 2026-04-22 19:50 | 43.68683 | -94.20973 | 33845 ft | 415 kts | 213° |
| 2026-04-22 19:50 | 43.65982 | -94.22459 | 33857 ft | 425 kts | 197° |
| 2026-04-22 19:50 | 43.63037 | -94.23075 | 33863 ft | 430 kts | 191° |
| 2026-04-22 19:51 | 43.57045 | -94.23766 | 33855 ft | 433 kts | 189° |
| 2026-04-22 19:51 | 43.51023 | -94.24432 | 33851 ft | 434 kts | 190° |
| 2026-04-22 19:52 | 43.45021 | -94.25199 | 33853 ft | 432 kts | 191° |
| 2026-04-22 19:52 | 43.39087 | -94.26023 | 33860 ft | 430 kts | 191° |
| 2026-04-22 19:53 | 43.33131 | -94.26859 | 33866 ft | 430 kts | 191° |
| 2026-04-22 19:53 | 43.27172 | -94.27682 | 33867 ft | 431 kts | 191° |
| 2026-04-22 19:54 | 43.21191 | -94.28494 | 33868 ft | 431 kts | 191° |
| 2026-04-22 19:54 | 43.15208 | -94.29299 | 33866 ft | 432 kts | 191° |
| 2026-04-22 19:55 | 43.09212 | -94.30107 | 33866 ft | 433 kts | 191° |
| 2026-04-22 19:55 | 43.03258 | -94.30909 | 33864 ft | 432 kts | 191° |
| 2026-04-22 19:56 | 42.97286 | -94.31712 | 33866 ft | 430 kts | 191° |
| 2026-04-22 19:56 | 42.91329 | -94.32511 | 33875 ft | 429 kts | 191° |
| 2026-04-22 19:57 | 42.85384 | -94.33305 | 33884 ft | 429 kts | 191° |
| 2026-04-22 19:57 | 42.79439 | -94.34096 | 33911 ft | 430 kts | 191° |
| 2026-04-22 19:58 | 42.73469 | -94.34889 | 33913 ft | 431 kts | 191° |
| 2026-04-22 19:58 | 42.67494 | -94.35680 | 33919 ft | 432 kts | 191° |
| 2026-04-22 20:00 | 42.46628 | -94.38434 | 33902 ft | 428 kts | 191° |
| 2026-04-22 20:01 | 42.40691 | -94.39218 | 33907 ft | 429 kts | 191° |
| 2026-04-22 20:01 | 42.34747 | -94.39993 | 33914 ft | 429 kts | 191° |
| 2026-04-22 20:02 | 42.28799 | -94.40770 | 33923 ft | 430 kts | 191° |
| 2026-04-22 20:02 | 42.22843 | -94.41546 | 33927 ft | 430 kts | 191° |
| 2026-04-22 20:03 | 42.16887 | -94.42325 | 33923 ft | 430 kts | 190° |
| 2026-04-22 20:03 | 42.10971 | -94.43094 | 33918 ft | 429 kts | 191° |
| 2026-04-22 20:03 | 42.08000 | -94.43479 | 33696 ft | 433 kts | 190° |
| 2026-04-22 20:04 | 42.04976 | -94.43876 | 33187 ft | 436 kts | 190° |
| 2026-04-22 20:04 | 42.01958 | -94.44272 | 32627 ft | 434 kts | 190° |
| 2026-04-22 20:04 | 41.98953 | -94.44663 | 32021 ft | 432 kts | 190° |
| 2026-04-22 20:04 | 41.95963 | -94.45055 | 31076 ft | 434 kts | 189° |
| 2026-04-22 20:05 | 41.92937 | -94.45465 | 30042 ft | 439 kts | 191° |
| 2026-04-22 20:05 | 41.90046 | -94.46532 | 29402 ft | 424 kts | 209° |
| 2026-04-22 20:05 | 41.87651 | -94.48694 | 28732 ft | 411 kts | 226° |
| 2026-04-22 20:05 | 41.85735 | -94.51496 | 28019 ft | 405 kts | 232° |
| 2026-04-22 20:06 | 41.83995 | -94.54447 | 27320 ft | 402 kts | 234° |
| 2026-04-22 20:06 | 41.82333 | -94.57442 | 26678 ft | 398 kts | 235° |
| 2026-04-22 20:06 | 41.80717 | -94.60443 | 26057 ft | 395 kts | 236° |
| 2026-04-22 20:06 | 41.79123 | -94.63430 | 25439 ft | 393 kts | 236° |
| 2026-04-22 20:07 | 41.77528 | -94.66388 | 24829 ft | 390 kts | 235° |
| 2026-04-22 20:07 | 41.75929 | -94.69313 | 24232 ft | 389 kts | 235° |
| 2026-04-22 20:07 | 41.74325 | -94.72208 | 23648 ft | 387 kts | 234° |
| 2026-04-22 20:07 | 41.72719 | -94.75094 | 23055 ft | 383 kts | 234° |
| 2026-04-22 20:08 | 41.71136 | -94.77932 | 22470 ft | 379 kts | 234° |
| 2026-04-22 20:08 | 41.69559 | -94.80755 | 21856 ft | 377 kts | 234° |
| 2026-04-22 20:08 | 41.67991 | -94.83553 | 21280 ft | 374 kts | 234° |
| 2026-04-22 20:08 | 41.66433 | -94.86335 | 20697 ft | 373 kts | 234° |
| 2026-04-22 20:09 | 41.64884 | -94.89094 | 20224 ft | 368 kts | 233° |
| 2026-04-22 20:09 | 41.63367 | -94.91795 | 19531 ft | 371 kts | 233° |
| 2026-04-22 20:09 | 41.61813 | -94.94556 | 18643 ft | 373 kts | 233° |
| 2026-04-22 20:09 | 41.60238 | -94.97332 | 17689 ft | 376 kts | 232° |
| 2026-04-22 20:10 | 41.58664 | -95.00108 | 17043 ft | 371 kts | 232° |
| 2026-04-22 20:10 | 41.57130 | -95.02826 | 16546 ft | 363 kts | 232° |
| 2026-04-22 20:10 | 41.55622 | -95.05507 | 15826 ft | 361 kts | 232° |
| 2026-04-22 20:10 | 41.54118 | -95.08189 | 15039 ft | 362 kts | 231° |
| 2026-04-22 20:11 | 41.52613 | -95.10887 | 14275 ft | 363 kts | 233° |
| 2026-04-22 20:11 | 41.51363 | -95.13808 | 13601 ft | 362 kts | 244° |
| 2026-04-22 20:11 | 41.50461 | -95.16941 | 12952 ft | 359 kts | 247° |
| 2026-04-22 20:11 | 41.49632 | -95.20064 | 12275 ft | 356 kts | 248° |
| 2026-04-22 20:12 | 41.48822 | -95.23150 | 11664 ft | 350 kts | 248° |
| 2026-04-22 20:12 | 41.48036 | -95.26213 | 11027 ft | 347 kts | 249° |
| 2026-04-22 20:12 | 41.47528 | -95.28209 | 10846 ft | 337 kts | 249° |
| 2026-04-22 20:12 | 41.46571 | -95.32023 | 10666 ft | 311 kts | 249° |
| 2026-04-22 20:13 | 41.45908 | -95.34695 | 10518 ft | 295 kts | 249° |
| 2026-04-22 20:13 | 41.45282 | -95.37196 | 10288 ft | 284 kts | 248° |
| 2026-04-22 20:13 | 41.44663 | -95.39696 | 9750 ft | 285 kts | 248° |
| 2026-04-22 20:13 | 41.44034 | -95.42205 | 9221 ft | 284 kts | 248° |
| 2026-04-22 20:14 | 41.43410 | -95.44684 | 8880 ft | 278 kts | 248° |
| 2026-04-22 20:14 | 41.42802 | -95.47113 | 8616 ft | 274 kts | 248° |
| 2026-04-22 20:14 | 41.42201 | -95.49519 | 8334 ft | 273 kts | 248° |
| 2026-04-22 20:14 | 41.41599 | -95.51925 | 8001 ft | 273 kts | 248° |
| 2026-04-22 20:15 | 41.40999 | -95.54325 | 7655 ft | 273 kts | 248° |
| 2026-04-22 20:15 | 41.40403 | -95.56711 | 7309 ft | 270 kts | 248° |
| 2026-04-22 20:15 | 41.39828 | -95.59060 | 7032 ft | 264 kts | 249° |
| 2026-04-22 20:15 | 41.39406 | -95.61438 | 6659 ft | 265 kts | 255° |
| 2026-04-22 20:16 | 41.39087 | -95.63861 | 6195 ft | 266 kts | 255° |
| 2026-04-22 20:16 | 41.38816 | -95.66286 | 5925 ft | 262 kts | 260° |
| 2026-04-22 20:16 | 41.38742 | -95.68668 | 5754 ft | 254 kts | 263° |
| 2026-04-22 20:16 | 41.38667 | -95.70981 | 5472 ft | 245 kts | 261° |
| 2026-04-22 20:17 | 41.38545 | -95.73180 | 5079 ft | 240 kts | 259° |
| 2026-04-22 20:17 | 41.38367 | -95.75373 | 4805 ft | 233 kts | 257° |
| 2026-04-22 20:17 | 41.38150 | -95.77416 | 4772 ft | 208 kts | 255° |
| 2026-04-22 20:17 | 41.37939 | -95.79269 | 4534 ft | 198 kts | 254° |
| 2026-04-22 20:18 | 41.37756 | -95.80976 | 4156 ft | 178 kts | 253° |
| 2026-04-22 20:18 | 41.37561 | -95.82533 | 3806 ft | 164 kts | 253° |
| 2026-04-22 20:18 | 41.37357 | -95.84027 | 3387 ft | 165 kts | 250° |
| 2026-04-22 20:18 | 41.37126 | -95.85505 | 2959 ft | 161 kts | 249° |
| 2026-04-22 20:19 | 41.36860 | -95.86934 | 2598 ft | 157 kts | 246° |
| 2026-04-22 20:19 | 41.36573 | -95.88314 | 2223 ft | 152 kts | 242° |
| 2026-04-22 20:19 | 41.35971 | -95.89287 | 1946 ft | 131 kts | 195° |
| 2026-04-22 20:19 | 41.35105 | -95.89437 | 1781 ft | 126 kts | 179° |
| 2026-04-22 20:20 | 41.34197 | -95.89453 | 1590 ft | 135 kts | 178° |
| 2026-04-22 20:20 | 41.33246 | -95.89448 | 1420 ft | 137 kts | 177° |
| 2026-04-22 20:20 | 41.32308 | -95.89450 | 1234 ft | 133 kts | 178° |
| 2026-04-22 20:20 | 41.31393 | -95.89457 | 1047 ft | 127 kts | 175° |
| 2026-04-22 20:21 | 41.30580 | -95.89447 | 996 ft | 99 kts | 181° |
| 2026-04-22 20:21 | 41.30144 | -95.89458 | 992 ft | 38 kts | 180° |
| 2026-04-22 20:21 | 41.29920 | -95.89459 | 992 ft | 31 kts | 181° |
| 2026-04-22 20:21 | 41.29732 | -95.89464 | 992 ft | 12 kts | 195° |
| 2026-04-22 20:22 | 41.29703 | -95.89511 | 991 ft | 8 kts | 268° |
| 2026-04-22 20:22 | 41.29713 | -95.89591 | 995 ft | 5 kts | 320° |
| 2026-04-22 20:22 | 41.29772 | -95.89621 | 996 ft | 13 kts | 315° |
| 2026-04-22 20:22 | 41.29793 | -95.89686 | 992 ft | 2 kts | 242° |
| 2026-04-22 20:23 | 41.29784 | -95.89693 | 992 ft | 2 kts | 195° |
| 2026-04-22 20:23 | 41.29751 | -95.89715 | 994 ft | 5 kts | 234° |
| 2026-04-22 20:23 | 41.29750 | -95.89758 | 992 ft | 1 kts | 281° |
| 2026-04-22 20:23 | 41.29751 | -95.89767 | 993 ft | 0 kts | 281° |